createdAt,value
2018-05-10T00:00:36.142Z,15.60
2018-05-10T00:03:04.069Z,15.60
2018-05-10T00:05:31.978Z,15.60
2018-05-10T00:07:59.834Z,15.60
2018-05-10T00:10:27.701Z,15.60
2018-05-10T00:12:55.564Z,15.70
2018-05-10T00:15:23.426Z,15.60
2018-05-10T00:17:51.151Z,15.60
2018-05-10T00:20:19.063Z,15.60
2018-05-10T00:22:46.916Z,15.60
2018-05-10T00:25:14.740Z,15.50
2018-05-10T00:27:42.480Z,15.50
2018-05-10T00:30:10.257Z,15.60
2018-05-10T00:32:37.996Z,15.50
2018-05-10T00:35:05.768Z,15.50
2018-05-10T00:37:33.492Z,15.50
2018-05-10T00:40:01.248Z,15.50
2018-05-10T00:42:29.063Z,15.50
2018-05-10T00:44:56.875Z,15.50
2018-05-10T00:47:24.752Z,15.50
2018-05-10T00:49:52.506Z,15.50
2018-05-10T00:52:21.084Z,15.50
2018-05-10T00:54:57.447Z,15.40
2018-05-10T00:57:25.310Z,15.50
2018-05-10T00:59:53.072Z,15.50
2018-05-10T01:02:20.936Z,15.50
2018-05-10T01:04:48.887Z,15.50
2018-05-10T01:07:16.771Z,15.50
2018-05-10T01:09:44.595Z,15.50
2018-05-10T01:12:12.393Z,15.60
2018-05-10T01:14:40.259Z,15.50
2018-05-10T01:17:08.120Z,15.50
2018-05-10T01:19:35.985Z,15.50
2018-05-10T01:22:03.849Z,15.50
2018-05-10T01:24:31.715Z,15.50
2018-05-10T01:26:59.474Z,15.50
2018-05-10T01:29:27.339Z,15.50
2018-05-10T01:31:55.067Z,15.50
2018-05-10T01:34:22.964Z,15.50
2018-05-10T01:36:50.933Z,15.50
2018-05-10T01:39:18.795Z,15.50
2018-05-10T01:41:46.629Z,15.60
2018-05-10T01:44:14.425Z,15.70
2018-05-10T01:46:42.182Z,15.80
2018-05-10T01:49:09.913Z,15.90
2018-05-10T01:51:37.696Z,15.80
2018-05-10T01:54:05.421Z,15.80
2018-05-10T01:56:33.172Z,15.80
2018-05-10T01:59:00.898Z,15.70
2018-05-10T02:01:29.475Z,15.50
2018-05-10T02:03:57.439Z,15.50
2018-05-10T02:06:25.300Z,15.50
2018-05-10T02:08:53.063Z,15.40
2018-05-10T02:11:20.928Z,15.40
2018-05-10T02:13:48.791Z,15.30
2018-05-10T02:16:16.656Z,15.20
2018-05-10T02:18:44.526Z,15.30
2018-05-10T02:21:12.386Z,15.30
2018-05-10T02:23:40.248Z,15.30
2018-05-10T02:26:08.112Z,15.40
2018-05-10T02:28:35.977Z,15.40
2018-05-10T02:31:03.848Z,15.30
2018-05-10T02:33:31.706Z,15.40
2018-05-10T02:35:59.569Z,15.40
2018-05-10T02:38:27.433Z,15.30
2018-05-10T02:40:55.298Z,15.20
2018-05-10T02:43:23.060Z,15.30
2018-05-10T02:45:50.889Z,15.30
2018-05-10T02:48:18.690Z,15.30
2018-05-10T02:50:46.519Z,15.40
2018-05-10T02:53:14.322Z,15.40
2018-05-10T02:55:42.283Z,15.50
2018-05-10T02:58:10.152Z,15.50
2018-05-10T03:00:38.012Z,15.50
2018-05-10T03:03:05.768Z,15.60
2018-05-10T03:05:33.552Z,15.60
2018-05-10T03:08:01.277Z,15.70
2018-05-10T03:10:29.061Z,15.70
2018-05-10T03:12:56.889Z,15.70
2018-05-10T03:15:24.625Z,15.70
2018-05-10T03:17:54.093Z,15.70
2018-05-10T03:20:22.661Z,15.80
2018-05-10T03:22:50.430Z,15.80
2018-05-10T03:25:18.286Z,15.90
2018-05-10T03:27:46.150Z,16.00
2018-05-10T03:30:14.014Z,16.10
2018-05-10T03:32:41.880Z,16.20
2018-05-10T03:35:09.745Z,16.20
2018-05-10T03:37:37.607Z,16.20
2018-05-10T03:40:05.473Z,16.30
2018-05-10T03:42:33.337Z,16.40
2018-05-10T03:45:01.199Z,16.60
2018-05-10T03:47:29.143Z,16.60
2018-05-10T03:49:57.023Z,16.60
2018-05-10T03:52:24.901Z,16.70
2018-05-10T03:54:52.723Z,16.70
2018-05-10T03:57:20.484Z,16.80
2018-05-10T03:59:48.385Z,16.80
2018-05-10T04:02:16.251Z,16.70
2018-05-10T04:04:55.992Z,16.60
2018-05-10T04:20:55.084Z,16.60
2018-05-10T04:23:22.821Z,16.70
2018-05-10T04:25:50.552Z,17.00
2018-05-10T04:28:18.332Z,17.40
2018-05-10T04:30:46.072Z,17.80
2018-05-10T04:33:13.852Z,18.30
2018-05-10T04:35:41.744Z,18.40
2018-05-10T04:38:09.496Z,18.50
2018-05-10T04:40:37.363Z,18.50
2018-05-10T04:43:05.236Z,18.50
2018-05-10T04:45:32.988Z,18.70
2018-05-10T04:48:00.792Z,18.90
2018-05-10T04:50:29.435Z,19.00
2018-05-10T04:52:57.297Z,18.90
2018-05-10T04:55:25.159Z,18.90
2018-05-10T04:57:53.027Z,19.10
2018-05-10T05:00:20.887Z,19.40
2018-05-10T05:02:48.754Z,19.40
2018-05-10T05:05:16.620Z,19.40
2018-05-10T05:07:45.045Z,19.30
2018-05-10T05:10:12.963Z,19.30
2018-05-10T05:12:40.825Z,19.40
2018-05-10T05:15:08.669Z,19.80
2018-05-10T05:17:36.523Z,20.30
2018-05-10T05:20:04.420Z,20.70
2018-05-10T05:22:32.280Z,20.90
2018-05-10T05:25:00.142Z,21.10
2018-05-10T05:27:28.008Z,21.40
2018-05-10T05:29:55.872Z,21.90
2018-05-10T05:32:23.739Z,22.50
2018-05-10T05:34:51.600Z,23.30
2018-05-10T05:37:19.464Z,24.10
2018-05-10T05:39:47.332Z,25.20
2018-05-10T05:42:15.115Z,26.50
2018-05-10T05:44:42.845Z,28.20
2018-05-10T05:47:10.613Z,28.50
2018-05-10T05:49:38.345Z,27.00
2018-05-10T05:52:06.070Z,25.90
2018-05-10T05:54:33.870Z,24.80
2018-05-10T05:57:01.735Z,24.00
2018-05-10T05:59:29.631Z,23.10
2018-05-10T06:01:57.495Z,22.80
2018-05-10T06:04:25.267Z,22.90
2018-05-10T06:06:52.991Z,24.00
2018-05-10T06:09:20.885Z,24.00
2018-05-10T06:11:49.871Z,23.60
2018-05-10T06:14:17.734Z,22.90
2018-05-10T06:16:45.600Z,22.50
2018-05-10T06:19:13.433Z,22.00
2018-05-10T06:21:41.226Z,21.60
2018-05-10T06:24:08.957Z,21.70
2018-05-10T06:26:36.854Z,21.70
2018-05-10T06:29:04.714Z,21.90
2018-05-10T06:31:32.589Z,22.30
2018-05-10T06:34:00.348Z,22.90
2018-05-10T06:36:28.208Z,23.50
2018-05-10T06:38:56.074Z,23.70
2018-05-10T06:41:24.045Z,24.00
2018-05-10T06:43:51.797Z,23.70
2018-05-10T06:46:19.662Z,23.70
2018-05-10T06:48:47.395Z,23.50
2018-05-10T06:51:15.297Z,23.30
2018-05-10T06:53:43.120Z,22.90
2018-05-10T06:56:10.919Z,22.50
2018-05-10T06:58:38.675Z,22.30
2018-05-10T07:01:06.396Z,22.10
2018-05-10T07:03:34.159Z,22.10
2018-05-10T07:06:01.885Z,22.30
2018-05-10T07:08:29.644Z,22.40
2018-05-10T07:10:57.504Z,22.60
2018-05-10T07:13:25.263Z,22.60
2018-05-10T07:15:52.989Z,22.30
2018-05-10T07:18:20.879Z,21.90
2018-05-10T07:20:48.737Z,21.70
2018-05-10T07:23:16.618Z,21.70
2018-05-10T07:25:45.184Z,21.70
2018-05-10T07:28:13.052Z,21.70
2018-05-10T07:30:41.731Z,22.30
2018-05-10T07:33:09.593Z,22.20
2018-05-10T07:35:37.561Z,22.40
2018-05-10T07:38:05.424Z,22.50
2018-05-10T07:40:33.290Z,22.30
2018-05-10T07:43:01.158Z,22.10
2018-05-10T07:45:29.024Z,22.10
2018-05-10T07:47:56.836Z,22.00
2018-05-10T07:50:24.754Z,21.90
2018-05-10T07:52:52.613Z,22.10
2018-05-10T07:55:20.447Z,22.40
2018-05-10T07:57:48.202Z,22.60
2018-05-10T08:00:15.932Z,22.70
2018-05-10T08:02:44.541Z,22.90
2018-05-10T08:05:12.346Z,22.90
2018-05-10T08:07:40.216Z,23.30
2018-05-10T08:10:08.118Z,23.40
2018-05-10T08:12:35.935Z,24.00
2018-05-10T08:15:03.695Z,24.50
2018-05-10T08:17:31.450Z,25.10
2018-05-10T08:19:59.181Z,25.40
2018-05-10T08:22:26.951Z,26.40
2018-05-10T08:24:54.698Z,29.10
2018-05-10T08:27:22.551Z,32.80
2018-05-10T08:29:50.332Z,35.80
2018-05-10T08:32:18.129Z,37.80
2018-05-10T08:34:45.995Z,37.70
2018-05-10T08:37:13.822Z,38.70
2018-05-10T08:39:41.724Z,39.30
2018-05-10T08:42:10.303Z,38.00
2018-05-10T08:44:38.169Z,37.90
2018-05-10T08:47:06.032Z,37.30
2018-05-10T08:49:33.896Z,37.60
2018-05-10T08:52:01.774Z,37.30
2018-05-10T08:54:29.655Z,37.00
2018-05-10T08:56:58.320Z,38.10
2018-05-10T08:59:26.891Z,38.80
2018-05-10T09:01:54.751Z,38.80
2018-05-10T09:04:22.615Z,38.80
2018-05-10T09:06:50.380Z,39.10
2018-05-10T09:09:18.242Z,38.80
2018-05-10T09:11:46.106Z,39.10
2018-05-10T09:14:13.969Z,38.30
2018-05-10T09:16:41.838Z,37.70
2018-05-10T09:19:09.662Z,37.40
2018-05-10T09:21:37.434Z,37.10
2018-05-10T09:24:05.162Z,35.30
2018-05-10T09:26:33.723Z,31.80
2018-05-10T09:29:02.215Z,30.10
2018-05-10T09:31:30.755Z,29.10
2018-05-10T09:33:58.557Z,29.00
2018-05-10T09:36:27.103Z,28.30
2018-05-10T09:38:55.624Z,28.00
2018-05-10T09:41:24.122Z,27.90
2018-05-10T09:43:51.889Z,27.80
2018-05-10T09:46:19.685Z,27.40
2018-05-10T09:48:47.428Z,27.40
2018-05-10T09:51:15.176Z,27.00
2018-05-10T09:53:42.940Z,26.70
2018-05-10T09:56:10.735Z,26.90
2018-05-10T09:58:38.543Z,26.70
2018-05-10T10:01:07.053Z,27.10
2018-05-10T10:03:34.780Z,27.10
2018-05-10T10:06:03.302Z,26.70
2018-05-10T10:08:31.035Z,26.70
2018-05-10T10:10:58.893Z,26.70
2018-05-10T10:13:26.632Z,26.70
2018-05-10T10:15:55.153Z,26.80
2018-05-10T10:18:22.909Z,26.80
2018-05-10T10:20:50.684Z,26.90
2018-05-10T10:23:18.469Z,26.70
2018-05-10T10:25:46.231Z,26.50
2018-05-10T10:28:13.964Z,26.60
2018-05-10T10:30:41.754Z,26.70
2018-05-10T10:33:09.493Z,26.70
2018-05-10T10:35:37.276Z,26.80
2018-05-10T10:38:05.132Z,26.70
2018-05-10T10:40:32.866Z,26.60
2018-05-10T10:43:00.622Z,26.60
2018-05-10T10:45:28.496Z,26.60
2018-05-10T10:47:56.392Z,26.60
2018-05-10T10:50:24.127Z,26.50
2018-05-10T10:52:51.931Z,26.50
2018-05-10T10:55:19.816Z,26.60
2018-05-10T10:57:47.568Z,26.70
2018-05-10T11:00:15.305Z,26.90
2018-05-10T11:02:43.045Z,26.90
2018-05-10T11:05:10.823Z,26.90
2018-05-10T11:07:38.695Z,26.60
2018-05-10T11:10:06.558Z,26.50
2018-05-10T11:12:34.292Z,26.70
2018-05-10T11:15:02.268Z,26.80
2018-05-10T11:17:29.969Z,26.70
2018-05-10T11:19:58.548Z,26.50
2018-05-10T11:22:26.285Z,26.50
2018-05-10T11:24:54.044Z,26.70
2018-05-10T11:27:21.811Z,26.70
2018-05-10T11:29:49.601Z,26.60
2018-05-10T11:32:18.231Z,26.70
2018-05-10T11:34:46.029Z,26.70
2018-05-10T11:37:13.838Z,26.60
2018-05-10T11:39:41.644Z,26.60
2018-05-10T11:42:09.413Z,26.60
2018-05-10T11:44:37.152Z,26.80
2018-05-10T11:47:04.936Z,26.80
2018-05-10T11:49:32.668Z,27.10
2018-05-10T11:52:00.432Z,27.00
2018-05-10T11:54:28.164Z,27.00
2018-05-10T11:56:55.929Z,27.20
2018-05-10T11:59:23.661Z,27.20
2018-05-10T12:01:52.320Z,27.50
2018-05-10T12:04:20.042Z,27.50
2018-05-10T12:06:47.766Z,27.50
2018-05-10T12:09:15.514Z,27.50
2018-05-10T12:11:43.250Z,27.40
2018-05-10T12:14:10.995Z,27.40
2018-05-10T12:16:38.736Z,27.20
2018-05-10T12:19:06.496Z,26.90
2018-05-10T12:21:34.230Z,27.00
2018-05-10T12:24:02.073Z,27.00
2018-05-10T12:26:29.941Z,27.10
2018-05-10T12:28:57.805Z,27.10
2018-05-10T12:31:25.538Z,27.20
2018-05-10T12:33:53.267Z,27.20
2018-05-10T12:36:21.797Z,27.40
2018-05-10T12:38:49.516Z,27.40
2018-05-10T12:41:17.277Z,27.40
2018-05-10T12:43:44.998Z,27.50
2018-05-10T12:46:12.767Z,27.50
2018-05-10T12:48:40.648Z,27.50
2018-05-10T12:51:09.224Z,27.20
2018-05-10T12:53:37.055Z,27.20
2018-05-10T12:56:04.879Z,27.20
2018-05-10T12:58:33.371Z,27.30
2018-05-10T13:01:01.145Z,27.30
2018-05-10T13:03:28.873Z,27.40
2018-05-10T13:05:56.647Z,27.50
2018-05-10T13:08:24.427Z,27.70
2018-05-10T13:10:52.169Z,27.80
2018-05-10T13:13:20.076Z,27.90
2018-05-10T13:15:47.939Z,27.70
2018-05-10T13:18:15.692Z,27.60
2018-05-10T13:20:44.368Z,27.50
2018-05-10T13:23:12.120Z,27.50
2018-05-10T13:25:39.860Z,27.40
2018-05-10T13:28:07.639Z,27.40
2018-05-10T13:30:35.372Z,27.50
2018-05-10T13:33:03.923Z,27.70
2018-05-10T13:35:31.654Z,27.70
2018-05-10T13:37:59.396Z,27.50
2018-05-10T13:40:27.161Z,27.50
2018-05-10T13:42:54.883Z,27.70
2018-05-10T13:45:23.411Z,27.40
2018-05-10T13:47:51.137Z,27.40
2018-05-10T13:50:18.939Z,27.20
2018-05-10T13:52:46.722Z,27.40
2018-05-10T13:55:14.474Z,27.50
2018-05-10T13:57:42.969Z,27.60
2018-05-10T14:00:10.737Z,27.50
2018-05-10T14:02:38.460Z,27.40
2018-05-10T14:05:06.242Z,27.20
2018-05-10T14:07:33.963Z,27.00
2018-05-10T14:10:01.689Z,26.80
2018-05-10T14:12:29.442Z,26.80
2018-05-10T14:14:57.225Z,26.70
2018-05-10T14:17:25.746Z,26.70
2018-05-10T14:19:53.470Z,26.70
2018-05-10T14:22:22.017Z,26.90
2018-05-10T14:24:49.874Z,26.80
2018-05-10T14:27:17.738Z,26.90
2018-05-10T14:29:45.611Z,26.90
2018-05-10T14:32:13.466Z,26.90
2018-05-10T14:34:41.205Z,27.00
2018-05-10T14:37:08.954Z,27.20
2018-05-10T14:39:36.826Z,27.10
2018-05-10T14:42:05.290Z,27.20
2018-05-10T14:44:33.202Z,27.20
2018-05-10T14:47:00.924Z,27.50
2018-05-10T14:49:28.676Z,27.60
2018-05-10T14:51:56.425Z,27.60
2018-05-10T14:54:24.183Z,27.50
2018-05-10T14:56:51.934Z,27.40
2018-05-10T14:59:20.453Z,27.30
2018-05-10T15:01:48.182Z,27.30
2018-05-10T15:04:16.729Z,27.30
2018-05-10T15:06:44.448Z,27.40
2018-05-10T15:09:12.174Z,27.30
2018-05-10T15:11:39.932Z,27.40
2018-05-10T15:14:07.696Z,27.40
2018-05-10T15:16:35.637Z,27.40
2018-05-10T15:19:03.464Z,27.40
2018-05-10T15:21:31.234Z,27.30
2018-05-10T15:23:58.979Z,27.30
2018-05-10T15:26:27.491Z,27.50
2018-05-10T15:28:55.220Z,27.50
2018-05-10T15:31:22.969Z,27.70
2018-05-10T15:33:51.476Z,27.80
2018-05-10T15:36:19.369Z,27.80
2018-05-10T15:38:47.234Z,27.60
2018-05-10T15:41:15.099Z,27.60
2018-05-10T15:43:43.780Z,27.20
2018-05-10T15:46:11.863Z,27.20
2018-05-10T15:48:39.715Z,27.00
2018-05-10T15:51:07.580Z,26.80
2018-05-10T15:53:35.446Z,26.70
2018-05-10T15:56:04.024Z,26.50
2018-05-10T15:58:31.895Z,26.50
2018-05-10T16:00:59.630Z,26.40
2018-05-10T16:03:27.413Z,26.30
2018-05-10T16:05:57.262Z,26.30
2018-05-10T16:08:25.915Z,26.30
2018-05-10T16:10:54.451Z,26.40
2018-05-10T16:13:23.051Z,26.30
2018-05-10T16:15:51.035Z,26.30
2018-05-10T16:18:18.903Z,26.30
2018-05-10T16:20:46.863Z,26.10
2018-05-10T16:23:14.647Z,26.00
2018-05-10T16:25:43.225Z,25.90
2018-05-10T16:28:11.181Z,25.90
2018-05-10T16:30:39.970Z,25.90
2018-05-10T16:33:07.900Z,26.00
2018-05-10T16:35:35.901Z,26.00
2018-05-10T16:38:03.759Z,25.90
2018-05-10T16:40:31.599Z,25.80
2018-05-10T16:42:59.330Z,25.80
2018-05-10T16:45:27.246Z,25.80
2018-05-10T16:47:55.017Z,25.60
2018-05-10T16:50:23.657Z,25.60
2018-05-10T16:52:51.549Z,25.50
2018-05-10T16:55:19.891Z,25.60
2018-05-10T16:57:48.584Z,25.60
2018-05-10T17:00:16.317Z,25.60
2018-05-10T17:02:44.856Z,25.40
2018-05-10T17:05:12.622Z,25.40
2018-05-10T17:07:40.381Z,25.30
2018-05-10T17:10:08.134Z,25.30
2018-05-10T17:12:36.107Z,25.30
2018-05-10T17:15:03.971Z,25.30
2018-05-10T17:17:31.701Z,25.30
2018-05-10T17:19:59.599Z,25.20
2018-05-10T17:22:27.358Z,25.00
2018-05-10T17:24:55.175Z,25.00
2018-05-10T17:27:22.905Z,24.90
2018-05-10T17:29:50.671Z,24.90
2018-05-10T17:32:19.326Z,24.70
2018-05-10T17:34:47.190Z,24.70
2018-05-10T17:37:14.921Z,24.60
2018-05-10T17:39:42.704Z,24.60
2018-05-10T17:42:10.444Z,24.50
2018-05-10T17:44:38.251Z,24.40
2018-05-10T17:47:06.000Z,24.30
2018-05-10T17:49:33.729Z,24.30
2018-05-10T17:52:01.490Z,24.30
2018-05-10T17:54:29.284Z,24.10
2018-05-10T17:56:57.097Z,24.00
2018-05-10T17:59:25.734Z,23.80
2018-05-10T18:01:53.906Z,23.80
2018-05-10T18:04:21.663Z,23.60
2018-05-10T18:06:49.488Z,23.50
2018-05-10T18:09:17.216Z,23.30
2018-05-10T18:11:45.976Z,23.20
2018-05-10T18:14:13.704Z,23.10
2018-05-10T18:16:41.426Z,23.00
2018-05-10T18:19:09.977Z,22.70
2018-05-10T18:21:38.760Z,22.70
2018-05-10T18:24:06.625Z,22.60
2018-05-10T18:26:34.371Z,22.50
2018-05-10T18:29:02.132Z,22.40
2018-05-10T18:31:29.872Z,22.30
2018-05-10T18:33:57.639Z,22.20
2018-05-10T18:36:25.374Z,22.10
2018-05-10T18:38:53.139Z,22.00
2018-05-10T18:41:20.942Z,22.00
2018-05-10T18:43:49.024Z,21.90
2018-05-10T18:46:16.892Z,21.80
2018-05-10T18:48:45.437Z,21.70
2018-05-10T18:51:13.238Z,21.70
2018-05-10T18:53:41.033Z,21.70
2018-05-10T18:56:09.652Z,21.50
2018-05-10T18:58:37.444Z,21.50
2018-05-10T19:01:05.306Z,21.50
2018-05-10T19:03:33.169Z,21.50
2018-05-10T19:06:01.032Z,21.30
2018-05-10T19:08:28.897Z,21.20
2018-05-10T19:10:56.823Z,21.20
2018-05-10T19:13:24.727Z,21.10
2018-05-10T19:15:52.598Z,21.10
2018-05-10T19:18:20.457Z,20.90
2018-05-10T19:20:48.748Z,20.80
2018-05-10T19:23:17.517Z,20.50
2018-05-10T19:25:45.381Z,20.40
2018-05-10T19:28:13.449Z,20.40
2018-05-10T19:30:41.211Z,20.20
2018-05-10T19:33:09.076Z,20.10
2018-05-10T19:35:36.939Z,20.00
2018-05-10T19:38:04.703Z,20.00
2018-05-10T19:40:32.484Z,19.80
2018-05-10T19:43:00.328Z,19.80
2018-05-10T19:45:28.419Z,19.70
2018-05-10T19:47:56.235Z,19.70
2018-05-10T19:50:24.010Z,19.60
2018-05-10T19:52:51.804Z,19.60
2018-05-10T19:55:19.637Z,19.50
2018-05-10T19:57:48.264Z,19.50
2018-05-10T20:00:16.164Z,19.40
2018-05-10T20:02:44.062Z,19.30
2018-05-10T20:05:11.926Z,19.30
2018-05-10T20:07:39.787Z,19.20
2018-05-10T20:10:07.654Z,19.20
2018-05-10T20:12:35.518Z,19.10
2018-05-10T20:15:03.384Z,19.00
2018-05-10T20:17:31.244Z,18.90
2018-05-10T20:20:00.212Z,18.80
2018-05-10T20:22:28.070Z,18.80
2018-05-10T20:24:55.939Z,18.80
2018-05-10T20:27:23.834Z,18.80
2018-05-10T20:29:52.310Z,18.80
2018-05-10T20:32:20.380Z,18.80
2018-05-10T20:34:48.211Z,18.70
2018-05-10T20:37:16.002Z,18.70
2018-05-10T20:39:43.969Z,18.60
2018-05-10T20:42:11.831Z,18.50
2018-05-10T20:44:39.785Z,18.60
2018-05-10T20:47:10.572Z,18.40
2018-05-10T20:49:39.214Z,18.40
2018-05-10T20:52:07.080Z,18.40
2018-05-10T20:54:34.951Z,18.50
2018-05-10T20:57:02.812Z,18.40
2018-05-10T20:59:30.670Z,18.40
2018-05-10T21:01:58.416Z,18.20
2018-05-10T21:04:26.216Z,18.10
2018-05-10T21:06:53.952Z,18.00
2018-05-10T21:09:21.763Z,18.00
2018-05-10T21:11:50.505Z,18.00
2018-05-10T21:14:18.279Z,17.90
2018-05-10T21:16:46.067Z,18.00
2018-05-10T21:19:14.607Z,18.10
2018-05-10T21:21:42.473Z,18.00
2018-05-10T21:24:10.340Z,18.00
2018-05-10T21:26:38.717Z,18.00
2018-05-10T21:29:06.575Z,18.00
2018-05-10T21:31:34.442Z,18.00
2018-05-10T21:34:02.338Z,18.10
2018-05-10T21:36:30.144Z,18.10
2018-05-10T21:38:58.035Z,18.10
2018-05-10T21:41:26.995Z,18.10
2018-05-10T21:43:54.913Z,18.10
2018-05-10T21:46:23.470Z,18.20
2018-05-10T21:48:51.335Z,18.20
2018-05-10T21:51:19.198Z,18.10
2018-05-10T21:53:47.064Z,17.90
2018-05-10T21:56:14.893Z,18.00
2018-05-10T21:58:42.794Z,18.00
2018-05-10T22:01:10.652Z,17.90
2018-05-10T22:03:38.482Z,17.80
2018-05-10T22:06:06.383Z,17.80
2018-05-10T22:08:34.246Z,17.70
2018-05-10T22:11:02.083Z,17.70
2018-05-10T22:13:29.872Z,17.60
2018-05-10T22:15:57.739Z,17.50
2018-05-10T22:18:25.567Z,17.50
2018-05-10T22:20:53.477Z,17.50
2018-05-10T22:23:21.333Z,17.40
2018-05-10T22:25:49.145Z,17.40
2018-05-10T22:28:16.909Z,17.40
2018-05-10T22:30:44.662Z,17.40
2018-05-10T22:33:12.380Z,17.30
2018-05-10T22:35:40.353Z,17.40
2018-05-10T22:38:08.213Z,17.30
2018-05-10T22:40:36.036Z,17.30
2018-05-10T22:43:03.940Z,17.30
2018-05-10T22:45:31.802Z,17.40
2018-05-10T22:47:59.701Z,17.40
2018-05-10T22:50:27.535Z,17.30
2018-05-10T22:52:55.362Z,17.40
2018-05-10T22:55:23.157Z,17.40
2018-05-10T22:57:50.909Z,17.30
2018-05-10T23:00:18.646Z,17.20
2018-05-10T23:02:46.542Z,17.10
2018-05-10T23:05:14.304Z,17.00
2018-05-10T23:07:42.092Z,17.00
2018-05-10T23:10:10.646Z,16.90
2018-05-10T23:12:38.512Z,16.90
2018-05-10T23:15:06.341Z,16.80
2018-05-10T23:17:34.106Z,16.70
2018-05-10T23:20:02.005Z,16.60
2018-05-10T23:22:29.864Z,16.60
2018-05-10T23:24:57.729Z,16.50
2018-05-10T23:27:25.596Z,16.50
2018-05-10T23:29:53.355Z,16.50
2018-05-10T23:32:21.113Z,16.50
2018-05-10T23:34:48.892Z,16.30
2018-05-10T23:37:16.633Z,16.20
2018-05-10T23:39:44.471Z,16.10
2018-05-10T23:42:12.212Z,16.10
2018-05-10T23:44:39.966Z,16.10
2018-05-10T23:47:08.520Z,16.00
2018-05-10T23:49:36.244Z,16.00
2018-05-10T23:52:04.012Z,15.90
2018-05-10T23:54:31.766Z,15.80
2018-05-10T23:56:59.559Z,15.80
2018-05-10T23:59:27.293Z,15.80
